Time;durP1;ratioP1;P1;durP2;ratioP2;P2;SDS_P1;SDS_P2;PMS_P1;PMS_P2;Temp;Humidity;BMP_temperature;BMP_pressure;BME280_temperature;BME280_humidity;BME280_pressure;Samples;Min_cycle;Max_cycle;Signal;HPM_P1;HPM_P2
2022/04/21 00:00:47;;;;;;;2.20;1.70;;;;;;;20.48;40.46;96396.31;10368537;28;20489;-79
2022/04/21 00:06:07;;;;;;;1.92;1.70;;;;;;;20.48;40.55;96389.00;10355685;28;20045;-79
2022/04/21 00:11:26;;;;;;;1.70;1.60;;;;;;;20.48;40.46;96393.63;10358162;28;20108;-79
2022/04/21 00:16:45;;;;;;;1.70;1.52;;;;;;;20.44;40.44;96382.69;10360234;28;20400;-79
2022/04/21 00:27:44;;;;;;;1.80;1.60;;;;;;;20.43;40.61;96383.81;10345901;28;20081;-79
2022/04/21 00:33:04;;;;;;;2.33;1.52;;;;;;;20.43;40.61;96377.63;10346122;28;20465;-81
2022/04/21 00:38:23;;;;;;;1.80;1.52;;;;;;;20.40;40.69;96373.66;10362905;28;20074;-79
2022/04/21 00:43:43;;;;;;;1.38;1.27;;;;;;;20.40;40.48;96367.47;10370684;28;20042;-79
2022/04/21 00:49:02;;;;;;;1.98;1.55;;;;;;;20.38;40.40;96364.31;10343404;28;20042;-79
2022/04/21 00:54:22;;;;;;;1.40;1.30;;;;;;;20.37;40.51;96373.59;10366796;28;20433;-79
2022/04/21 00:59:43;;;;;;;1.60;1.50;;;;;;;20.35;40.54;96357.69;10345555;28;20107;-79
2022/04/21 01:05:03;;;;;;;1.45;1.35;;;;;;;20.34;40.46;96356.88;10359701;28;20042;-79
2022/04/21 01:10:26;;;;;;;1.70;1.58;;;;;;;20.34;40.37;96353.38;10367085;28;20095;-79
2022/04/21 01:15:46;;;;;;;1.63;1.52;;;;;;;20.30;40.48;96353.28;10355380;28;20041;-79
2022/04/21 01:21:05;;;;;;;2.03;1.50;;;;;;;20.29;40.46;96359.81;10345974;28;20492;-79
2022/04/21 01:26:29;;;;;;;1.65;1.38;;;;;;;20.29;40.33;96359.03;10364959;28;20068;-79
2022/04/21 01:31:48;;;;;;;1.45;1.25;;;;;;;20.28;40.50;96352.81;10352574;28;20049;-80
2022/04/21 01:42:47;;;;;;;1.52;1.42;;;;;;;20.26;40.38;96352.38;10378684;28;20053;-79
2022/04/21 01:48:07;;;;;;;1.85;1.50;;;;;;;20.24;40.33;96343.03;10362984;28;20053;-79
2022/04/21 01:53:26;;;;;;;1.25;1.15;;;;;;;20.22;40.41;96332.53;10360528;28;20056;-79
2022/04/21 01:58:46;;;;;;;2.03;1.67;;;;;;;20.21;40.40;96339.09;10340622;28;20635;-79
2022/04/21 02:04:06;;;;;;;1.48;1.38;;;;;;;20.21;40.36;96335.59;10368605;28;20126;-79
2022/04/21 02:09:25;;;;;;;1.60;1.40;;;;;;;20.20;40.38;96324.00;10367162;28;20042;-79
2022/04/21 02:14:45;;;;;;;1.48;1.35;;;;;;;20.18;40.33;96325.47;10338823;28;20425;-79
2022/04/21 02:20:06;;;;;;;1.75;1.40;;;;;;;20.15;40.33;96322.31;10365987;28;20042;-79
2022/04/21 02:25:26;;;;;;;1.40;1.30;;;;;;;20.15;40.27;96316.13;10349560;28;20500;-79
2022/04/21 02:30:46;;;;;;;1.42;1.30;;;;;;;20.13;40.58;96310.22;10351849;28;20042;-79
2022/04/21 02:36:05;;;;;;;1.60;1.50;;;;;;;20.11;40.27;96312.50;10345287;28;20037;-79
2022/04/21 02:41:26;;;;;;;1.52;1.42;;;;;;;20.10;40.34;96308.22;10353832;28;20041;-79
2022/04/21 02:46:45;;;;;;;1.50;1.30;;;;;;;20.09;40.18;96312.03;10366411;28;20049;-79
2022/04/21 02:52:06;;;;;;;1.45;1.30;;;;;;;20.07;40.35;96304.28;10366950;28;20045;-79
2022/04/21 02:57:27;;;;;;;1.50;1.40;;;;;;;20.06;40.42;96307.34;10339847;28;20111;-79
2022/04/21 03:02:46;;;;;;;1.30;1.20;;;;;;;20.06;40.57;96299.22;10362588;28;20060;-79
2022/04/21 03:08:06;;;;;;;1.27;1.17;;;;;;;20.03;40.28;96295.28;10360130;28;20457;-79
2022/04/21 03:13:25;;;;;;;1.45;1.27;;;;;;;20.03;40.45;96291.78;10356486;28;20130;-80
2022/04/21 03:18:45;;;;;;;1.20;1.10;;;;;;;20.01;40.32;96294.81;10370589;28;20458;-79
2022/04/21 03:24:19;;;;;;;1.67;1.38;;;;;;;20.01;40.31;96294.03;10345427;28;20045;-79
2022/04/21 03:29:39;;;;;;;1.40;1.30;;;;;;;19.99;40.10;96288.94;10366853;28;20042;-79
2022/04/21 03:35:00;;;;;;;1.40;1.30;;;;;;;19.97;40.21;96290.44;10348416;28;20034;-79
2022/04/21 03:40:19;;;;;;;1.30;1.20;;;;;;;19.97;40.28;96282.31;10373740;28;20046;-79
2022/04/21 03:45:39;;;;;;;1.92;1.50;;;;;;;19.94;40.11;96284.56;10358643;28;20124;-79
2022/04/21 03:50:59;;;;;;;1.23;1.13;;;;;;;19.93;40.21;96288.41;10385882;28;20045;-79
2022/04/21 03:56:19;;;;;;;1.20;1.10;;;;;;;19.92;40.20;96292.22;10372201;28;20046;-79
2022/04/21 04:01:38;;;;;;;1.35;1.23;;;;;;;19.90;40.21;96294.50;10372433;28;20058;-79
2022/04/21 04:12:38;;;;;;;1.23;1.13;;;;;;;19.88;40.47;96288.63;10344322;28;20045;-78
2022/04/21 04:17:58;;;;;;;1.20;1.10;;;;;;;19.87;40.05;96295.16;10370533;28;20053;-78
2022/04/21 04:23:19;;;;;;;1.40;1.30;;;;;;;19.86;40.46;96301.69;10368285;28;20041;-79
2022/04/21 04:28:38;;;;;;;1.30;1.20;;;;;;;19.85;40.89;96313.63;10358256;28;20058;-78
2022/04/21 04:33:58;;;;;;;1.55;1.17;;;;;;;19.85;41.13;96307.44;10370594;28;20396;-79
2022/04/21 04:39:17;;;;;;;1.60;1.50;;;;;;;19.83;40.95;96307.78;10384837;28;20061;-79
2022/04/21 04:44:37;;;;;;;1.30;1.20;;;;;;;19.82;41.03;96303.50;10343123;28;20038;-79
2022/04/21 04:49:56;;;;;;;1.30;1.20;;;;;;;19.81;41.09;96304.63;10351084;28;20130;-79
2022/04/21 04:55:16;;;;;;;1.60;1.38;;;;;;;19.81;40.97;96311.94;10361556;28;20434;-79
2022/04/21 05:00:36;;;;;;;1.45;1.10;;;;;;;19.79;41.16;96314.97;10347502;28;20053;-78
2022/04/21 05:05:55;;;;;;;1.42;1.33;;;;;;;19.79;41.22;96325.00;10364499;28;20125;-78
2022/04/21 05:11:15;;;;;;;3.83;1.70;;;;;;;19.77;41.51;96319.94;10358808;28;20033;-78
2022/04/21 05:16:45;;;;;;;1.73;1.40;;;;;;;19.77;41.58;96328.03;10356287;28;20037;-78
2022/04/21 05:22:05;;;;;;;2.75;1.50;;;;;;;19.75;41.72;96322.97;10360556;28;20042;-78
2022/04/21 05:27:24;;;;;;;3.45;1.63;;;;;;;19.75;41.90;96330.28;10369615;28;20041;-78
2022/04/21 05:32:45;;;;;;;1.83;1.45;;;;;;;19.74;42.05;96323.31;10384640;28;20045;-81
2022/04/21 05:38:05;;;;;;;2.35;1.50;;;;;;;19.73;41.58;96333.31;10371090;28;20052;-80
2022/04/21 05:43:50;;;;;;;1.65;1.55;;;;;;;19.72;41.69;96336.38;10343869;28;20053;-80
2022/04/21 05:49:10;;;;;;;5.45;2.17;;;;;;;19.71;41.86;96321.25;10370092;28;20104;-80
2022/04/21 05:54:29;;;;;;;11.38;5.95;;;;;;;19.69;40.70;96331.63;10357462;28;20049;-80
2022/04/21 05:59:49;;;;;;;6.25;2.13;;;;;;;19.64;40.94;96318.31;10352413;28;20625;-80
2022/04/21 06:05:08;;;;;;;11.63;3.47;;;;;;;19.63;41.35;96327.56;10331033;28;20053;-78
2022/04/21 06:16:00;;;;;;;11.13;3.70;;;;;;;19.66;41.33;96324.16;10444047;28;20041;-58
2022/04/21 06:21:20;;;;;;;6.15;3.20;;;;;;;19.65;41.36;96319.91;10462845;28;20052;-58
2022/04/21 06:26:42;;;;;;;10.43;3.55;;;;;;;19.65;41.30;96315.28;10465832;28;20041;-58
2022/04/21 06:32:02;;;;;;;9.80;3.75;;;;;;;19.65;41.28;96312.56;10450466;28;20121;-59
2022/04/21 06:37:22;;;;;;;8.10;3.50;;;;;;;19.65;41.27;96311.78;10457900;28;20573;-58
2022/04/21 06:42:42;;;;;;;11.00;9.90;;;;;;;19.51;38.94;96312.91;10457195;28;20049;-58
2022/04/21 06:48:02;;;;;;;12.60;11.40;;;;;;;18.23;37.18;96328.75;10457049;28;20056;-59
2022/04/21 06:53:21;;;;;;;12.43;11.23;;;;;;;17.27;38.56;96331.81;10446321;28;20415;-59
2022/04/21 06:58:40;;;;;;;8.10;7.30;;;;;;;-146.19;100.00;65364.44;10447132;28;20099;-59
2022/04/21 07:04:00;;;;;;;5.47;4.57;;;;;;;17.27;38.56;96331.81;10473490;28;20045;-57
2022/04/21 07:09:20;;;;;;;5.38;3.70;;;;;;;17.27;38.56;96331.81;10453000;28;20048;-60
2022/04/21 07:14:41;;;;;;;4.47;3.47;;;;;;;18.82;38.58;96329.75;10410123;28;20630;-61
2022/04/21 07:20:02;;;;;;;5.07;4.60;;;;;;;18.82;38.58;96329.75;10400096;28;20092;-62
2022/04/21 07:25:22;;;;;;;6.45;3.63;;;;;;;19.06;38.80;96337.19;10404674;28;20060;-61
2022/04/21 07:30:41;;;;;;;3.83;3.10;;;;;;;19.12;39.12;96338.56;10408178;28;20057;-59
2022/04/21 07:36:00;;;;;;;3.15;2.85;;;;;;;19.12;39.12;96338.56;10412428;28;20218;-60
2022/04/21 07:41:20;;;;;;;3.45;2.90;;;;;;;-146.19;100.00;65364.44;10412911;28;20049;-59
2022/04/21 07:46:40;;;;;;;3.75;3.05;;;;;;;-146.19;100.00;65364.44;10396830;28;20100;-59
2022/04/21 07:57:38;;;;;;;4.75;2.95;;;;;;;19.37;40.07;96347.53;10403761;28;20057;-58
2022/04/21 08:02:58;;;;;;;4.82;2.70;;;;;;;19.42;40.19;96350.00;10421292;28;20434;-59
2022/04/21 08:08:17;;;;;;;4.32;2.80;;;;;;;19.45;40.28;96346.66;10405012;28;20104;-57
2022/04/21 08:13:37;;;;;;;6.03;2.88;;;;;;;19.49;40.69;96344.88;10409635;28;20058;-58
2022/04/21 08:18:58;;;;;;;3.67;2.67;;;;;;;19.53;40.50;96351.16;10423156;28;20484;-59
2022/04/21 08:35:34;;;;;;;8.90;2.40;;;;;;;19.64;40.32;96342.63;10415011;28;20884;-59
2022/04/21 08:40:55;;;;;;;2.63;2.20;;;;;;;19.67;40.31;96334.66;10425730;28;20045;-60
2022/04/21 08:46:20;;;;;;;3.20;2.20;;;;;;;19.71;40.48;96342.88;10424813;28;20081;-59
2022/04/21 08:51:40;;;;;;;2.90;2.20;;;;;;;19.74;40.50;96337.63;10408022;28;20049;-58
2022/04/21 08:57:01;;;;;;;2.58;2.20;;;;;;;19.79;40.50;96344.72;10411059;28;20049;-57
2022/04/21 09:02:20;;;;;;;4.60;2.42;;;;;;;19.85;41.02;96343.34;10392369;28;20137;-59
2022/04/21 09:07:50;;;;;;;3.92;2.30;;;;;;;19.89;41.09;96344.25;10409097;28;20053;-60
2022/04/21 09:13:10;;;;;;;4.90;2.20;;;;;;;19.91;41.13;96344.72;10409524;28;20088;-59
2022/04/21 09:18:37;;;;;;;5.30;2.53;;;;;;;19.95;41.18;96353.75;8623202;28;10001490;-59
2022/04/21 09:23:56;;;;;;;2.83;2.35;;;;;;;19.99;41.29;96350.34;10335185;28;20080;-59
2022/04/21 09:29:34;;;;;;;4.00;2.38;;;;;;;20.02;41.13;96349.69;10370305;28;20053;-58
2022/04/21 09:34:53;;;;;;;3.92;2.55;;;;;;;20.06;41.09;96345.19;10348454;28;20066;-58
2022/04/21 09:40:15;;;;;;;4.85;2.38;;;;;;;20.08;41.15;96334.81;10330923;28;20046;-58
2022/04/21 09:51:16;;;;;;;2.72;2.30;;;;;;;20.12;41.06;96330.31;10316231;28;20046;-58
2022/04/21 09:56:39;;;;;;;3.65;2.28;;;;;;;20.12;40.83;96333.78;10343939;28;20042;-58
2022/04/21 10:02:01;;;;;;;4.05;2.30;;;;;;;20.15;40.87;96335.06;10330877;28;20054;-58
2022/04/21 10:07:22;;;;;;;3.67;2.40;;;;;;;20.18;40.75;96339.75;10335142;28;20061;-58
2022/04/21 10:12:42;;;;;;;3.35;2.15;;;;;;;20.19;40.67;96333.25;10338408;28;20794;-59
2022/04/21 10:18:03;;;;;;;2.88;2.08;;;;;;;20.20;40.80;96321.28;10343714;28;20054;-59
2022/04/21 10:23:26;;;;;;;2.95;2.00;;;;;;;20.22;40.67;96334.47;10336750;28;20046;-59
2022/04/21 10:28:50;;;;;;;4.10;2.10;;;;;;;20.23;40.70;96319.81;10347748;28;20046;-59
2022/04/21 10:34:09;;;;;;;3.30;1.90;;;;;;;20.25;40.56;96325.69;10350113;28;20050;-59
2022/04/21 10:39:30;;;;;;;2.15;1.95;;;;;;;20.25;40.51;96323.75;10337163;28;20117;-59
2022/04/21 10:44:53;;;;;;;2.88;2.00;;;;;;;20.26;40.40;96319.91;10336894;28;20058;-59
2022/04/21 10:50:16;;;;;;;2.20;1.80;;;;;;;20.27;40.18;96318.03;10358634;28;20053;-58
2022/04/21 11:01:23;;;;;;;2.30;1.80;;;;;;;20.30;40.14;96315.41;10336149;28;20529;-60
2022/04/21 11:06:45;;;;;;;2.78;1.90;;;;;;;20.27;40.00;96307.97;10336053;28;20130;-61
2022/04/21 11:12:06;;;;;;;1.70;1.60;;;;;;;20.29;40.21;96308.44;10335122;28;20059;-56
2022/04/21 11:17:25;;;;;;;2.72;1.80;;;;;;;20.30;40.19;96304.59;10339976;28;20053;-59
2022/04/21 11:22:45;;;;;;;2.42;1.90;;;;;;;20.30;40.19;96304.59;10352638;28;20081;-57
2022/04/21 11:28:05;;;;;;;4.32;1.70;;;;;;;20.31;40.10;96302.69;10354550;28;20058;-58
2022/04/21 11:33:25;;;;;;;2.33;1.70;;;;;;;20.30;40.04;96299.16;10344890;28;20481;-57
2022/04/21 11:38:46;;;;;;;1.95;1.60;;;;;;;20.30;39.98;96301.88;10349432;28;20052;-59
2022/04/21 11:44:06;;;;;;;1.70;1.60;;;;;;;20.31;40.00;96308.88;10348891;28;20047;-59
2022/04/21 11:49:25;;;;;;;4.32;3.75;;;;;;;20.29;37.96;96303.03;10374791;28;20047;-59
2022/04/21 11:55:00;;;;;;;5.15;4.65;;;;;;;20.29;43.34;96303.03;10314846;28;20139;-59
2022/04/21 12:06:28;;;;;;;4.60;2.95;;;;;;;20.29;42.30;96300.31;10335212;28;20080;-59
2022/04/21 12:11:41;;;;;;;3.05;2.20;;;;;;;20.27;41.76;96289.06;10308936;28;20051;-59
2022/04/21 12:17:06;;;;;;;2.47;2.10;;;;;;;20.29;41.47;96292.19;10332665;28;20050;-58
2022/04/21 12:22:32;;;;;;;2.40;2.20;;;;;;;20.28;41.29;96287.91;10348801;28;20042;-58
2022/04/21 12:27:51;;;;;;;3.00;1.85;;;;;;;20.28;41.12;96287.91;10335195;28;20054;-58
2022/04/21 12:33:11;;;;;;;2.08;1.85;;;;;;;20.29;40.93;96289.50;10333291;28;20057;-60
2022/04/21 12:44:09;;;;;;;5.82;5.22;;;;;;;20.15;37.39;96286.38;10333343;28;20473;-60
2022/04/21 12:49:54;;;;;;;6.13;5.53;;;;;;;20.01;36.50;96284.00;10332610;28;20047;-59
2022/04/21 12:55:21;;;;;;;6.35;5.28;;;;;;;19.90;36.30;96283.69;10329550;28;20080;-59
2022/04/21 13:00:42;;;;;;;6.30;5.70;;;;;;;19.79;36.39;96285.25;10331149;28;20046;-61
2022/04/21 13:06:02;;;;;;;7.05;6.10;;;;;;;19.70;36.25;96279.94;10316247;28;20054;-59
2022/04/21 13:11:22;;;;;;;5.75;5.25;;;;;;;19.64;35.85;96280.47;10343203;28;20064;-58
2022/04/21 13:16:42;;;;;;;6.30;5.70;;;;;;;19.60;35.69;96282.28;10331294;28;20477;-57
2022/04/21 13:22:02;;;;;;;5.95;5.45;;;;;;;19.52;35.73;96276.66;10331040;28;20054;-58
2022/04/21 13:27:26;;;;;;;6.47;5.88;;;;;;;19.49;35.83;96271.91;10345099;28;20058;-59
2022/04/21 13:38:24;;;;;;;3.47;2.80;;;;;;;19.60;36.49;96271.47;10330615;28;20135;-59
2022/04/21 13:43:43;;;;;;;3.13;2.83;;;;;;;19.71;36.78;96259.91;10343706;28;20046;-58
2022/04/21 13:49:04;;;;;;;3.15;2.47;;;;;;;19.79;36.83;96265.56;10329624;28;20404;-58
2022/04/21 13:54:24;;;;;;;2.80;2.47;;;;;;;19.83;36.93;96267.22;10329057;28;20050;-58
2022/04/21 13:59:43;;;;;;;3.97;2.83;;;;;;;19.87;37.01;96268.13;10355636;28;20042;-58
2022/04/21 14:05:03;;;;;;;4.88;3.10;;;;;;;19.92;37.20;96259.78;10341860;28;20038;-60
2022/04/21 14:10:23;;;;;;;4.38;3.35;;;;;;;19.95;37.58;96264.53;10330192;28;20058;-59
2022/04/21 14:15:43;;;;;;;6.13;3.10;;;;;;;20.00;37.77;96265.44;10328902;28;20058;-59
2022/04/21 14:21:03;;;;;;;3.70;2.75;;;;;;;20.01;37.87;96259.66;10329977;28;20263;-59
2022/04/21 14:26:23;;;;;;;4.57;2.80;;;;;;;20.04;37.77;96259.00;10328715;28;20062;-59
2022/04/21 14:31:42;;;;;;;3.60;2.22;;;;;;;20.06;38.05;96255.97;10347626;28;20121;-59
2022/04/21 14:37:03;;;;;;;2.80;2.22;;;;;;;20.10;38.31;96254.16;10329067;28;20096;-59
2022/04/21 14:48:01;;;;;;;3.80;2.50;;;;;;;20.15;38.15;96262.03;10329789;28;20042;-60
2022/04/21 14:53:23;;;;;;;3.13;2.53;;;;;;;20.18;38.16;96257.84;10332319;28;20460;-60
2022/04/21 14:58:43;;;;;;;3.33;2.33;;;;;;;20.20;38.09;96259.06;10337100;28;20077;-58
2022/04/21 15:04:03;;;;;;;3.75;2.20;;;;;;;20.21;38.25;96251.75;10336670;28;20611;-59
2022/04/21 15:09:23;;;;;;;4.03;3.60;;;;;;;20.24;37.45;96257.25;10337080;28;20125;-58
2022/04/21 15:14:43;;;;;;;3.47;2.55;;;;;;;20.26;38.23;96259.63;10328593;28;20054;-59
2022/04/21 15:20:04;;;;;;;2.85;2.45;;;;;;;20.27;37.90;96256.59;10327833;28;20482;-60
2022/04/21 15:25:23;;;;;;;4.53;2.60;;;;;;;20.30;38.18;96257.81;10323057;28;20062;-60
2022/04/21 15:30:43;;;;;;;2.45;2.10;;;;;;;20.30;38.29;96247.78;10331816;28;20374;-60
2022/04/21 15:36:03;;;;;;;3.72;2.05;;;;;;;20.32;38.31;96260.97;10330741;28;20050;-58
2022/04/21 15:41:22;;;;;;;2.92;2.10;;;;;;;20.32;38.28;96256.34;10344854;28;20050;-59
2022/04/21 15:46:43;;;;;;;3.67;2.40;;;;;;;20.33;38.35;96251.75;10330961;28;20058;-60
2022/04/21 15:52:04;;;;;;;3.28;2.03;;;;;;;20.33;38.33;96243.63;10329416;28;20448;-59
2022/04/21 16:03:02;;;;;;;2.83;2.00;;;;;;;20.33;38.70;96246.31;10336844;28;20097;-59
2022/04/21 16:08:21;;;;;;;2.10;1.88;;;;;;;20.34;38.47;96247.88;10330470;28;20317;-59
2022/04/21 16:13:41;;;;;;;2.22;1.98;;;;;;;20.33;38.46;96249.03;10330218;28;20436;-58
2022/04/21 16:19:00;;;;;;;2.75;2.10;;;;;;;20.34;38.57;96251.38;10346336;28;20118;-59
2022/04/21 16:24:20;;;;;;;2.47;1.90;;;;;;;20.34;38.50;96237.84;10342533;28;20504;-58
2022/04/21 16:29:39;;;;;;;3.47;2.00;;;;;;;20.34;38.54;96237.84;10329385;28;20401;-59
2022/04/21 16:34:58;;;;;;;4.47;2.17;;;;;;;20.35;38.57;96235.94;10324495;28;20058;-60
2022/04/21 16:40:18;;;;;;;3.75;1.70;;;;;;;20.33;38.50;96236.28;10327978;28;20050;-60
2022/04/21 16:45:38;;;;;;;2.67;1.80;;;;;;;20.33;38.37;96236.28;10329862;28;20524;-58
2022/04/21 16:50:58;;;;;;;3.47;1.90;;;;;;;20.34;38.46;96226.25;10325011;28;20053;-59
2022/04/21 16:56:18;;;;;;;3.83;1.65;;;;;;;20.34;38.61;96228.94;10342855;28;20494;-58
2022/04/21 17:07:16;;;;;;;2.17;1.98;;;;;;;20.33;38.50;96232.81;10326477;28;20065;-60
2022/04/21 17:12:35;;;;;;;1.90;1.60;;;;;;;20.34;38.54;96237.84;10331435;28;20046;-60
2022/04/21 17:17:55;;;;;;;1.95;1.73;;;;;;;20.33;38.45;96230.88;10331455;28;20046;-58
2022/04/21 17:23:15;;;;;;;1.85;1.67;;;;;;;20.32;38.47;96234.69;10339611;28;20053;-59
2022/04/21 17:28:34;;;;;;;2.53;1.90;;;;;;;20.32;38.53;96242.03;10326023;28;21246;-60
2022/04/21 17:33:55;;;;;;;1.83;1.73;;;;;;;20.32;38.52;96231.22;10323643;28;20050;-59
2022/04/21 17:39:15;;;;;;;1.92;1.80;;;;;;;20.32;38.50;96234.69;10324998;28;20116;-59
2022/04/21 17:44:37;;;;;;;3.85;3.47;;;;;;;20.30;37.08;96234.25;10331036;28;21918;-59
2022/04/21 17:49:57;;;;;;;4.63;1.98;;;;;;;20.28;37.99;96233.81;10315348;28;20050;-59
2022/04/21 17:55:17;;;;;;;1.98;1.80;;;;;;;20.27;38.38;96229.53;10325829;28;20485;-58
2022/04/21 18:00:36;;;;;;;5.10;1.85;;;;;;;20.26;38.64;96236.06;10333780;28;20587;-59
2022/04/21 18:05:56;;;;;;;2.10;1.90;;;;;;;20.27;38.96;96242.28;10333689;28;20485;-59
2022/04/21 18:11:15;;;;;;;2.30;1.73;;;;;;;20.24;39.23;96243.75;10335162;28;20047;-60
2022/04/21 18:16:35;;;;;;;2.42;1.80;;;;;;;20.24;39.43;96243.75;10325616;28;20050;-60
2022/04/21 18:21:54;;;;;;;2.60;1.83;;;;;;;20.23;39.50;96247.59;10321932;28;20409;-59
2022/04/21 18:27:14;;;;;;;1.95;1.85;;;;;;;20.23;39.74;96236.78;10320212;28;20065;-59
2022/04/21 18:32:34;;;;;;;4.10;1.67;;;;;;;20.22;40.01;96243.28;10329582;28;20053;-58
2022/04/21 18:37:53;;;;;;;2.13;1.80;;;;;;;20.23;40.38;96244.06;10339916;28;20046;-60
2022/04/21 18:43:14;;;;;;;2.92;2.63;;;;;;;20.22;40.20;96234.41;10317444;28;20061;-60
2022/04/21 18:48:33;;;;;;;2.17;2.00;;;;;;;20.22;40.61;96247.91;10320753;28;20469;-58
2022/04/21 18:53:53;;;;;;;4.35;1.90;;;;;;;20.19;40.54;96241.28;10328350;28;20491;-58
2022/04/21 18:59:12;;;;;;;2.67;2.00;;;;;;;20.18;40.75;96245.09;10331599;28;20074;-58
2022/04/21 19:04:31;;;;;;;2.45;1.90;;;;;;;20.16;40.76;96225.72;10340482;28;20038;-57
2022/04/21 19:10:03;;;;;;;4.28;2.15;;;;;;;20.16;40.85;96220.31;10328117;28;20448;-57
2022/04/21 19:15:23;;;;;;;2.42;2.17;;;;;;;20.14;40.82;96219.88;10330794;28;20058;-58
2022/04/21 19:20:42;;;;;;;2.38;1.90;;;;;;;20.14;40.85;96223.38;10333458;28;20054;-57
2022/04/21 19:26:06;;;;;;;2.05;1.85;;;;;;;20.14;40.81;96223.38;10315417;28;20050;-59
2022/04/21 19:31:30;;;;;;;1.90;1.70;;;;;;;20.14;41.00;96217.19;10328917;28;20053;-59
2022/04/21 19:36:50;;;;;;;6.75;2.10;;;;;;;20.12;41.05;96222.91;10329943;28;20105;-59
2022/04/21 19:42:10;;;;;;;3.45;2.20;;;;;;;20.12;41.02;96217.50;10345083;28;20061;-59
2022/04/21 19:47:29;;;;;;;1.88;1.70;;;;;;;20.12;41.02;96214.81;10332997;28;20058;-58
2022/04/21 19:52:49;;;;;;;3.25;2.17;;;;;;;20.11;40.97;96217.84;10344003;28;20034;-59
2022/04/21 19:58:09;;;;;;;2.97;2.38;;;;;;;20.10;40.96;96210.88;10343528;28;20042;-57
2022/04/21 20:03:28;;;;;;;2.95;2.50;;;;;;;20.09;40.87;96210.09;10329528;28;20054;-58
2022/04/21 20:08:54;;;;;;;3.67;2.58;;;;;;;20.07;40.85;96206.94;10329680;28;20093;-58
2022/04/21 20:14:14;;;;;;;3.03;2.60;;;;;;;20.07;40.78;96211.53;10329013;28;20054;-57
2022/04/21 20:30:51;;;;;;;4.13;2.75;;;;;;;20.04;40.42;96191.41;10343993;28;20122;-57
2022/04/21 20:36:10;;;;;;;2.70;2.47;;;;;;;20.04;40.43;96190.63;10317492;28;20120;-57
2022/04/21 20:41:30;;;;;;;2.97;2.42;;;;;;;20.03;40.34;96189.03;10330152;28;20101;-57
2022/04/21 20:46:50;;;;;;;3.30;2.42;;;;;;;20.03;40.42;96194.44;10341641;28;20066;-57
2022/04/21 20:52:13;;;;;;;3.25;2.67;;;;;;;20.02;40.33;96187.47;10326720;28;20050;-58
2022/04/21 20:57:33;;;;;;;2.85;2.45;;;;;;;20.00;40.34;96184.31;10328254;28;20042;-57
2022/04/21 21:02:54;;;;;;;2.70;2.50;;;;;;;20.00;40.22;96184.31;10333000;28;20088;-57
2022/04/21 21:08:14;;;;;;;3.25;2.95;;;;;;;19.99;40.42;96182.72;10324536;28;20129;-57
2022/04/21 21:13:34;;;;;;;3.28;2.40;;;;;;;19.98;40.32;96181.94;10330594;28;20047;-57
2022/04/21 21:18:54;;;;;;;3.05;2.47;;;;;;;19.97;40.42;96185.78;10336347;28;20097;-57
2022/04/21 21:24:14;;;;;;;3.30;2.47;;;;;;;19.95;40.41;96190.72;10326608;28;20137;-57
2022/04/21 21:29:34;;;;;;;2.53;2.33;;;;;;;19.95;40.47;96188.03;10324632;28;20085;-58
2022/04/21 21:34:54;;;;;;;2.83;2.60;;;;;;;19.94;40.46;96187.25;10327346;28;20137;-56
2022/04/21 21:40:16;;;;;;;2.97;2.38;;;;;;;19.92;40.53;96172.50;10326099;28;20054;-58
2022/04/21 21:45:36;;;;;;;2.85;2.28;;;;;;;19.92;40.50;96176.00;10333000;28;20501;-57
2022/04/21 21:56:34;;;;;;;2.10;1.90;;;;;;;19.90;40.42;96170.13;10290081;28;20057;-58
2022/04/21 22:01:54;;;;;;;2.83;2.20;;;;;;;19.89;40.39;96162.38;10313243;28;20054;-58
2022/04/21 22:07:13;;;;;;;2.40;2.05;;;;;;;19.87;40.41;96159.22;10302610;28;20051;-56
2022/04/21 22:12:34;;;;;;;2.60;2.40;;;;;;;19.86;40.59;96158.44;10315190;28;20062;-56
2022/04/21 22:17:54;;;;;;;2.08;1.88;;;;;;;19.86;40.39;96152.25;10328739;28;20178;-56
2022/04/21 22:23:13;;;;;;;2.38;2.15;;;;;;;19.83;40.43;96145.59;10340226;28;20081;-57
2022/04/21 22:28:33;;;;;;;2.20;2.00;;;;;;;19.83;40.47;96148.28;10302480;28;20054;-57
2022/04/21 22:33:53;;;;;;;3.08;2.15;;;;;;;19.84;40.54;96143.69;10314744;28;20158;-56
2022/04/21 22:39:12;;;;;;;2.55;2.20;;;;;;;19.81;40.50;96142.44;10322325;28;20113;-58
2022/04/21 22:44:32;;;;;;;2.40;2.20;;;;;;;19.80;40.47;96137.38;10299143;28;20059;-57
2022/04/21 22:49:51;;;;;;;2.03;1.83;;;;;;;19.79;40.53;96136.59;10321343;28;20097;-58
2022/04/21 22:55:10;;;;;;;2.30;2.10;;;;;;;19.78;40.50;96124.22;10327893;28;20046;-57
2022/04/21 23:00:29;;;;;;;2.28;2.05;;;;;;;19.77;40.63;96116.44;10305985;28;20077;-57
2022/04/21 23:05:49;;;;;;;2.03;1.70;;;;;;;19.77;40.50;96111.81;10304246;28;20250;-57
2022/04/21 23:16:50;;;;;;;2.20;2.00;;;;;;;19.74;40.48;96112.53;10310397;28;20425;-57
2022/04/21 23:22:13;;;;;;;1.95;1.80;;;;;;;19.74;40.50;96101.72;10327927;28;20556;-57
2022/04/21 23:27:33;;;;;;;2.03;1.90;;;;;;;19.72;40.46;96096.66;10322687;28;20066;-57
2022/04/21 23:32:53;;;;;;;2.22;1.90;;;;;;;19.72;40.63;96085.06;10319285;28;20050;-58
2022/04/21 23:38:28;;;;;;;2.83;2.00;;;;;;;19.71;40.57;96078.03;10330425;28;20061;-57
2022/04/21 23:43:47;;;;;;;2.10;1.90;;;;;;;19.70;40.56;96065.66;10325519;28;20518;-57
2022/04/21 23:49:08;;;;;;;2.05;1.85;;;;;;;19.69;40.52;96061.38;10319579;28;20050;-57
2022/04/21 23:54:27;;;;;;;2.03;1.83;;;;;;;19.70;40.60;96049.47;10323282;28;20109;-57
2022/04/21 23:59:46;;;;;;;2.15;1.90;;;;;;;19.67;40.60;96047.44;10305918;28;20051;-57
